Kezdőlap
METAR-TAF:

METAR-TAF

Repülőterek :

Mafikeng, Dél-afrikai Köztársaság

földrajzi szélesség: 25-47S, földrajzi hosszúság: 025-32E, magasság: 1281 m

Jelenlegi meteorológiai megfigyelések

A jelentés 35 perccel ezelõtt készült, 00:00 UTC
Kelet-északkeleti szél 8 kt
Hőmérséklet 14°C
Páratartalom 36%
Légköri nyomás 1030 hPa

METAR: FAMM 230000Z AUTO 06008KT //// // ////// 14/M01 Q1030

Idő: 02:35 (00:35 UTC)

Előrejelzés

A jelentés 15 órával és 35 perccel ezelõtt készült, 09:00 UTC
Az előrejelzés 22-én 10 óra UTC és 22-én 18 óra UTC között érvényes
Észak-északkeleti szél 13 kt
Látótávolság 10 km, vagy több
felhőtlen 1500 m magasságban, és nincs gomolyfelhõ

TAF: FAMM 220900Z 2210/2218 03013KT CAVOK TX24/2213Z TN17/2218Z

Meteorológiai megfigyelések és előrejelzések több, mint 4000 repülőtéren (METAR és TAF jelentéseket).

A térképen piros és sárga pontok jelzik az elérhető meteorológiai állomásokat.

Mozgassa az egeret a pont fölött, hogy megjelenjen az állomás neve.

Azután kattintson az időjárási megfigyelések és előrejelzések megtekintéséhez.

A térkép megváltoztatása: kattintson a fekete keresztel jelölt zöld gombra ráközelítéshez, a vonallal jelölt zöld gombra távolításhoz, vagy a zöld nyilakra a szomszédos térképek eléréséhez.


METAR-TAF: